sensor_id;sensor_type;location;lat;lon;timestamp;P1;durP1;ratioP1;P2;durP2;ratioP2
80297;SDS011;69599;52.622;9.230;2023-10-09T00:00:23;3.88;;;0.95;;
80297;SDS011;69599;52.622;9.230;2023-10-09T00:03:04;3.50;;;1.48;;
80297;SDS011;69599;52.622;9.230;2023-10-09T00:05:31;6.35;;;1.42;;
80297;SDS011;69599;52.622;9.230;2023-10-09T00:08:13;3.42;;;1.20;;
80297;SDS011;69599;52.622;9.230;2023-10-09T00:10:47;2.65;;;1.00;;
80297;SDS011;69599;52.622;9.230;2023-10-09T00:13:18;4.03;;;1.25;;
80297;SDS011;69599;52.622;9.230;2023-10-09T00:15:52;2.72;;;1.20;;
80297;SDS011;69599;52.622;9.230;2023-10-09T00:18:22;3.63;;;1.20;;
80297;SDS011;69599;52.622;9.230;2023-10-09T00:20:54;2.10;;;1.02;;
80297;SDS011;69599;52.622;9.230;2023-10-09T00:23:20;4.95;;;1.45;;
80297;SDS011;69599;52.622;9.230;2023-10-09T00:25:50;3.45;;;1.42;;
80297;SDS011;69599;52.622;9.230;2023-10-09T00:28:45;4.20;;;0.95;;
80297;SDS011;69599;52.622;9.230;2023-10-09T00:31:15;2.47;;;1.33;;
80297;SDS011;69599;52.622;9.230;2023-10-09T00:33:44;3.97;;;1.20;;
80297;SDS011;69599;52.622;9.230;2023-10-09T00:36:09;2.83;;;1.05;;
80297;SDS011;69599;52.622;9.230;2023-10-09T00:38:36;4.43;;;1.30;;
80297;SDS011;69599;52.622;9.230;2023-10-09T00:41:04;3.10;;;1.17;;
80297;SDS011;69599;52.622;9.230;2023-10-09T00:43:33;3.80;;;1.00;;
80297;SDS011;69599;52.622;9.230;2023-10-09T00:46:00;4.22;;;1.00;;
80297;SDS011;69599;52.622;9.230;2023-10-09T00:48:45;3.83;;;1.20;;
80297;SDS011;69599;52.622;9.230;2023-10-09T00:51:15;2.55;;;0.93;;
80297;SDS011;69599;52.622;9.230;2023-10-09T00:53:48;4.28;;;1.20;;
80297;SDS011;69599;52.622;9.230;2023-10-09T00:56:20;2.28;;;1.17;;
80297;SDS011;69599;52.622;9.230;2023-10-09T00:58:54;3.30;;;0.90;;
80297;SDS011;69599;52.622;9.230;2023-10-09T01:01:26;4.78;;;1.38;;
80297;SDS011;69599;52.622;9.230;2023-10-09T01:04:15;3.42;;;1.17;;
80297;SDS011;69599;52.622;9.230;2023-10-09T01:06:44;3.60;;;1.10;;
80297;SDS011;69599;52.622;9.230;2023-10-09T01:09:29;3.30;;;1.00;;
80297;SDS011;69599;52.622;9.230;2023-10-09T01:12:01;3.17;;;0.93;;
80297;SDS011;69599;52.622;9.230;2023-10-09T01:14:26;5.65;;;1.20;;
80297;SDS011;69599;52.622;9.230;2023-10-09T01:16:52;6.90;;;1.15;;
80297;SDS011;69599;52.622;9.230;2023-10-09T01:19:19;2.60;;;1.10;;
80297;SDS011;69599;52.622;9.230;2023-10-09T01:21:49;3.55;;;1.42;;
80297;SDS011;69599;52.622;9.230;2023-10-09T01:24:17;3.13;;;1.70;;
80297;SDS011;69599;52.622;9.230;2023-10-09T01:26:45;2.60;;;1.10;;
80297;SDS011;69599;52.622;9.230;2023-10-09T01:29:12;2.35;;;0.80;;
80297;SDS011;69599;52.622;9.230;2023-10-09T01:31:47;4.28;;;0.93;;
80297;SDS011;69599;52.622;9.230;2023-10-09T01:34:21;3.05;;;0.95;;
80297;SDS011;69599;52.622;9.230;2023-10-09T01:36:49;4.40;;;1.20;;
80297;SDS011;69599;52.622;9.230;2023-10-09T01:39:19;3.58;;;1.08;;
80297;SDS011;69599;52.622;9.230;2023-10-09T01:41:56;2.58;;;1.00;;
80297;SDS011;69599;52.622;9.230;2023-10-09T01:44:30;3.58;;;1.40;;
80297;SDS011;69599;52.622;9.230;2023-10-09T01:47:02;4.90;;;1.25;;
80297;SDS011;69599;52.622;9.230;2023-10-09T01:49:34;4.15;;;1.42;;
80297;SDS011;69599;52.622;9.230;2023-10-09T01:52:06;3.50;;;1.38;;
80297;SDS011;69599;52.622;9.230;2023-10-09T01:54:36;2.65;;;1.13;;
80297;SDS011;69599;52.622;9.230;2023-10-09T01:57:02;4.43;;;1.20;;
80297;SDS011;69599;52.622;9.230;2023-10-09T01:59:34;4.53;;;1.05;;
80297;SDS011;69599;52.622;9.230;2023-10-09T02:02:03;3.45;;;1.38;;
80297;SDS011;69599;52.622;9.230;2023-10-09T02:07:37;5.40;;;1.20;;
80297;SDS011;69599;52.622;9.230;2023-10-09T02:10:06;3.17;;;1.30;;
80297;SDS011;69599;52.622;9.230;2023-10-09T02:12:47;2.00;;;1.05;;
80297;SDS011;69599;52.622;9.230;2023-10-09T02:15:17;5.75;;;1.30;;
80297;SDS011;69599;52.622;9.230;2023-10-09T02:18:02;5.53;;;1.55;;
80297;SDS011;69599;52.622;9.230;2023-10-09T02:20:41;3.75;;;1.25;;
80297;SDS011;69599;52.622;9.230;2023-10-09T02:23:09;2.65;;;1.30;;
80297;SDS011;69599;52.622;9.230;2023-10-09T02:25:38;3.65;;;1.20;;
80297;SDS011;69599;52.622;9.230;2023-10-09T02:28:08;3.35;;;1.00;;
80297;SDS011;69599;52.622;9.230;2023-10-09T02:30:43;3.50;;;1.30;;
80297;SDS011;69599;52.622;9.230;2023-10-09T02:33:12;4.03;;;1.83;;
80297;SDS011;69599;52.622;9.230;2023-10-09T02:35:43;3.10;;;1.10;;
80297;SDS011;69599;52.622;9.230;2023-10-09T02:38:09;3.05;;;1.10;;
80297;SDS011;69599;52.622;9.230;2023-10-09T02:40:39;2.20;;;1.10;;
80297;SDS011;69599;52.622;9.230;2023-10-09T02:43:26;3.33;;;1.00;;
80297;SDS011;69599;52.622;9.230;2023-10-09T02:45:52;4.57;;;1.10;;
80297;SDS011;69599;52.622;9.230;2023-10-09T02:48:17;2.80;;;1.20;;
80297;SDS011;69599;52.622;9.230;2023-10-09T02:50:50;5.13;;;2.42;;
80297;SDS011;69599;52.622;9.230;2023-10-09T02:53:16;4.13;;;1.52;;
80297;SDS011;69599;52.622;9.230;2023-10-09T02:55:45;3.80;;;1.20;;
80297;SDS011;69599;52.622;9.230;2023-10-09T02:58:29;5.75;;;1.60;;
80297;SDS011;69599;52.622;9.230;2023-10-09T03:00:57;1.85;;;0.90;;
80297;SDS011;69599;52.622;9.230;2023-10-09T03:03:23;4.25;;;1.65;;
80297;SDS011;69599;52.622;9.230;2023-10-09T03:05:50;3.10;;;1.30;;
80297;SDS011;69599;52.622;9.230;2023-10-09T03:08:15;3.97;;;1.27;;
80297;SDS011;69599;52.622;9.230;2023-10-09T03:10:44;4.03;;;1.30;;
80297;SDS011;69599;52.622;9.230;2023-10-09T03:13:09;4.00;;;1.10;;
80297;SDS011;69599;52.622;9.230;2023-10-09T03:15:35;4.15;;;1.65;;
80297;SDS011;69599;52.622;9.230;2023-10-09T03:18:03;2.80;;;1.58;;
80297;SDS011;69599;52.622;9.230;2023-10-09T03:20:30;8.30;;;2.47;;
80297;SDS011;69599;52.622;9.230;2023-10-09T03:22:56;2.42;;;1.00;;
80297;SDS011;69599;52.622;9.230;2023-10-09T03:25:22;3.45;;;1.45;;
80297;SDS011;69599;52.622;9.230;2023-10-09T03:27:50;3.40;;;1.60;;
80297;SDS011;69599;52.622;9.230;2023-10-09T03:30:18;3.90;;;1.40;;
80297;SDS011;69599;52.622;9.230;2023-10-09T03:32:48;3.10;;;1.17;;
80297;SDS011;69599;52.622;9.230;2023-10-09T03:35:19;4.20;;;1.40;;
80297;SDS011;69599;52.622;9.230;2023-10-09T03:37:49;5.38;;;1.52;;
80297;SDS011;69599;52.622;9.230;2023-10-09T03:40:16;3.22;;;1.20;;
80297;SDS011;69599;52.622;9.230;2023-10-09T03:42:43;2.97;;;1.40;;
80297;SDS011;69599;52.622;9.230;2023-10-09T03:45:09;3.53;;;1.20;;
80297;SDS011;69599;52.622;9.230;2023-10-09T03:47:49;5.60;;;2.00;;
80297;SDS011;69599;52.622;9.230;2023-10-09T03:50:21;4.28;;;1.58;;
80297;SDS011;69599;52.622;9.230;2023-10-09T03:52:52;4.80;;;1.55;;
80297;SDS011;69599;52.622;9.230;2023-10-09T03:55:20;3.67;;;1.60;;
80297;SDS011;69599;52.622;9.230;2023-10-09T03:57:47;5.25;;;2.03;;
80297;SDS011;69599;52.622;9.230;2023-10-09T04:00:13;5.47;;;1.83;;
80297;SDS011;69599;52.622;9.230;2023-10-09T04:02:52;4.93;;;1.92;;
80297;SDS011;69599;52.622;9.230;2023-10-09T04:05:22;6.28;;;2.75;;
80297;SDS011;69599;52.622;9.230;2023-10-09T04:07:51;5.72;;;2.45;;
80297;SDS011;69599;52.622;9.230;2023-10-09T04:10:22;6.85;;;2.97;;
80297;SDS011;69599;52.622;9.230;2023-10-09T04:13:06;8.23;;;3.58;;
80297;SDS011;69599;52.622;9.230;2023-10-09T04:15:35;7.45;;;3.05;;
80297;SDS011;69599;52.622;9.230;2023-10-09T04:18:01;6.15;;;2.88;;
80297;SDS011;69599;52.622;9.230;2023-10-09T04:20:28;8.70;;;3.80;;
80297;SDS011;69599;52.622;9.230;2023-10-09T04:22:53;8.70;;;3.80;;
80297;SDS011;69599;52.622;9.230;2023-10-09T04:25:25;8.30;;;3.42;;
80297;SDS011;69599;52.622;9.230;2023-10-09T04:27:55;6.65;;;3.25;;
80297;SDS011;69599;52.622;9.230;2023-10-09T04:30:35;8.90;;;3.40;;
80297;SDS011;69599;52.622;9.230;2023-10-09T04:33:14;12.77;;;4.88;;
80297;SDS011;69599;52.622;9.230;2023-10-09T04:36:09;12.13;;;4.93;;
80297;SDS011;69599;52.622;9.230;2023-10-09T04:38:43;10.27;;;4.70;;
80297;SDS011;69599;52.622;9.230;2023-10-09T04:41:21;10.23;;;6.25;;
80297;SDS011;69599;52.622;9.230;2023-10-09T04:43:55;14.95;;;6.05;;
80297;SDS011;69599;52.622;9.230;2023-10-09T04:46:39;14.57;;;6.25;;
80297;SDS011;69599;52.622;9.230;2023-10-09T04:49:11;13.77;;;6.72;;
80297;SDS011;69599;52.622;9.230;2023-10-09T04:52:03;16.55;;;7.40;;
80297;SDS011;69599;52.622;9.230;2023-10-09T04:54:42;19.58;;;8.52;;
80297;SDS011;69599;52.622;9.230;2023-10-09T04:57:28;16.50;;;8.15;;
80297;SDS011;69599;52.622;9.230;2023-10-09T04:59:54;19.48;;;8.00;;
80297;SDS011;69599;52.622;9.230;2023-10-09T05:02:23;19.85;;;10.02;;
80297;SDS011;69599;52.622;9.230;2023-10-09T05:04:49;24.50;;;8.80;;
80297;SDS011;69599;52.622;9.230;2023-10-09T05:07:34;28.20;;;10.40;;
80297;SDS011;69599;52.622;9.230;2023-10-09T05:10:20;27.02;;;10.73;;
80297;SDS011;69599;52.622;9.230;2023-10-09T05:12:50;28.98;;;10.73;;
80297;SDS011;69599;52.622;9.230;2023-10-09T05:15:23;25.13;;;10.55;;
80297;SDS011;69599;52.622;9.230;2023-10-09T05:17:53;31.55;;;12.70;;
80297;SDS011;69599;52.622;9.230;2023-10-09T05:20:22;31.05;;;12.02;;
80297;SDS011;69599;52.622;9.230;2023-10-09T05:22:48;36.65;;;13.07;;
80297;SDS011;69599;52.622;9.230;2023-10-09T05:25:24;38.78;;;14.90;;
80297;SDS011;69599;52.622;9.230;2023-10-09T05:28:15;36.28;;;14.68;;
80297;SDS011;69599;52.622;9.230;2023-10-09T05:30:57;32.00;;;13.27;;
80297;SDS011;69599;52.622;9.230;2023-10-09T05:33:36;37.90;;;15.40;;
80297;SDS011;69599;52.622;9.230;2023-10-09T05:36:05;41.10;;;14.52;;
80297;SDS011;69599;52.622;9.230;2023-10-09T05:38:51;35.67;;;15.52;;
80297;SDS011;69599;52.622;9.230;2023-10-09T05:41:43;37.85;;;15.13;;
80297;SDS011;69599;52.622;9.230;2023-10-09T05:44:17;37.83;;;15.13;;
80297;SDS011;69599;52.622;9.230;2023-10-09T05:47:01;38.70;;;14.48;;
80297;SDS011;69599;52.622;9.230;2023-10-09T05:49:45;42.22;;;17.23;;
80297;SDS011;69599;52.622;9.230;2023-10-09T05:52:23;46.17;;;17.13;;
80297;SDS011;69599;52.622;9.230;2023-10-09T05:55:04;49.15;;;16.55;;
80297;SDS011;69599;52.622;9.230;2023-10-09T05:57:45;42.53;;;16.25;;
80297;SDS011;69599;52.622;9.230;2023-10-09T06:00:29;42.38;;;17.77;;
80297;SDS011;69599;52.622;9.230;2023-10-09T06:03:13;44.70;;;19.40;;
80297;SDS011;69599;52.622;9.230;2023-10-09T06:05:53;52.15;;;19.45;;
80297;SDS011;69599;52.622;9.230;2023-10-09T06:08:23;52.80;;;21.15;;
80297;SDS011;69599;52.622;9.230;2023-10-09T06:10:56;51.83;;;21.10;;
80297;SDS011;69599;52.622;9.230;2023-10-09T06:13:31;51.63;;;18.95;;
80297;SDS011;69599;52.622;9.230;2023-10-09T06:16:04;58.15;;;22.65;;
80297;SDS011;69599;52.622;9.230;2023-10-09T06:18:55;54.72;;;21.08;;
80297;SDS011;69599;52.622;9.230;2023-10-09T06:21:33;47.83;;;17.77;;
80297;SDS011;69599;52.622;9.230;2023-10-09T06:24:07;47.17;;;20.38;;
80297;SDS011;69599;52.622;9.230;2023-10-09T06:26:43;48.28;;;21.13;;
80297;SDS011;69599;52.622;9.230;2023-10-09T06:29:24;49.92;;;20.30;;
80297;SDS011;69599;52.622;9.230;2023-10-09T06:32:00;45.03;;;20.90;;
80297;SDS011;69599;52.622;9.230;2023-10-09T06:34:44;53.72;;;21.83;;
80297;SDS011;69599;52.622;9.230;2023-10-09T06:37:11;51.78;;;22.05;;
80297;SDS011;69599;52.622;9.230;2023-10-09T06:39:52;48.83;;;20.58;;
80297;SDS011;69599;52.622;9.230;2023-10-09T06:42:20;49.60;;;18.17;;
80297;SDS011;69599;52.622;9.230;2023-10-09T06:47:54;44.00;;;19.92;;
80297;SDS011;69599;52.622;9.230;2023-10-09T06:50:34;45.72;;;18.45;;
80297;SDS011;69599;52.622;9.230;2023-10-09T06:53:18;50.10;;;20.13;;
80297;SDS011;69599;52.622;9.230;2023-10-09T06:55:44;52.60;;;20.13;;
80297;SDS011;69599;52.622;9.230;2023-10-09T06:58:20;48.90;;;18.67;;
80297;SDS011;69599;52.622;9.230;2023-10-09T07:00:52;40.50;;;17.55;;
80297;SDS011;69599;52.622;9.230;2023-10-09T07:03:24;40.35;;;17.40;;
80297;SDS011;69599;52.622;9.230;2023-10-09T07:08:49;42.10;;;17.27;;
80297;SDS011;69599;52.622;9.230;2023-10-09T07:11:36;46.67;;;19.13;;
80297;SDS011;69599;52.622;9.230;2023-10-09T07:14:08;41.47;;;17.35;;
80297;SDS011;69599;52.622;9.230;2023-10-09T07:19:22;44.13;;;18.88;;
80297;SDS011;69599;52.622;9.230;2023-10-09T07:22:03;46.03;;;20.60;;
80297;SDS011;69599;52.622;9.230;2023-10-09T07:24:31;53.58;;;19.77;;
80297;SDS011;69599;52.622;9.230;2023-10-09T07:27:08;48.75;;;20.77;;
80297;SDS011;69599;52.622;9.230;2023-10-09T07:29:37;48.78;;;18.98;;
80297;SDS011;69599;52.622;9.230;2023-10-09T07:32:18;55.45;;;21.30;;
80297;SDS011;69599;52.622;9.230;2023-10-09T07:34:49;55.03;;;20.45;;
80297;SDS011;69599;52.622;9.230;2023-10-09T07:37:24;51.60;;;20.08;;
80297;SDS011;69599;52.622;9.230;2023-10-09T07:39:55;60.67;;;23.30;;
80297;SDS011;69599;52.622;9.230;2023-10-09T07:42:24;50.63;;;19.25;;
80297;SDS011;69599;52.622;9.230;2023-10-09T07:45:12;58.13;;;21.52;;
80297;SDS011;69599;52.622;9.230;2023-10-09T07:47:57;53.50;;;19.92;;
80297;SDS011;69599;52.622;9.230;2023-10-09T07:50:27;53.53;;;22.08;;
80297;SDS011;69599;52.622;9.230;2023-10-09T07:53:16;52.38;;;20.75;;
80297;SDS011;69599;52.622;9.230;2023-10-09T07:55:51;56.28;;;21.45;;
80297;SDS011;69599;52.622;9.230;2023-10-09T07:58:21;51.35;;;21.80;;
80297;SDS011;69599;52.622;9.230;2023-10-09T08:00:53;57.42;;;20.63;;
80297;SDS011;69599;52.622;9.230;2023-10-09T08:03:35;47.60;;;19.45;;
80297;SDS011;69599;52.622;9.230;2023-10-09T08:06:01;49.88;;;20.73;;
80297;SDS011;69599;52.622;9.230;2023-10-09T08:08:46;48.05;;;22.27;;
80297;SDS011;69599;52.622;9.230;2023-10-09T08:11:30;51.50;;;19.98;;
80297;SDS011;69599;52.622;9.230;2023-10-09T08:14:05;52.83;;;20.98;;
80297;SDS011;69599;52.622;9.230;2023-10-09T08:17:06;50.15;;;20.48;;
80297;SDS011;69599;52.622;9.230;2023-10-09T08:19:41;50.75;;;19.88;;
80297;SDS011;69599;52.622;9.230;2023-10-09T08:22:28;45.80;;;20.58;;
80297;SDS011;69599;52.622;9.230;2023-10-09T08:24:54;46.08;;;19.85;;
80297;SDS011;69599;52.622;9.230;2023-10-09T08:27:24;53.88;;;21.10;;
80297;SDS011;69599;52.622;9.230;2023-10-09T08:30:03;50.80;;;20.92;;
80297;SDS011;69599;52.622;9.230;2023-10-09T08:32:56;45.97;;;20.45;;
80297;SDS011;69599;52.622;9.230;2023-10-09T08:35:51;50.58;;;21.25;;
80297;SDS011;69599;52.622;9.230;2023-10-09T08:38:20;54.13;;;22.10;;
80297;SDS011;69599;52.622;9.230;2023-10-09T08:40:48;54.90;;;22.02;;
80297;SDS011;69599;52.622;9.230;2023-10-09T08:43:23;52.72;;;21.65;;
80297;SDS011;69599;52.622;9.230;2023-10-09T08:45:56;45.88;;;21.17;;
80297;SDS011;69599;52.622;9.230;2023-10-09T08:48:27;52.75;;;22.33;;
80297;SDS011;69599;52.622;9.230;2023-10-09T08:50:54;51.80;;;20.73;;
80297;SDS011;69599;52.622;9.230;2023-10-09T08:53:21;45.10;;;20.33;;
80297;SDS011;69599;52.622;9.230;2023-10-09T08:55:47;48.20;;;20.40;;
80297;SDS011;69599;52.622;9.230;2023-10-09T08:58:15;47.65;;;20.80;;
80297;SDS011;69599;52.622;9.230;2023-10-09T09:00:56;51.28;;;20.63;;
80297;SDS011;69599;52.622;9.230;2023-10-09T09:03:23;48.67;;;20.65;;
80297;SDS011;69599;52.622;9.230;2023-10-09T09:05:59;62.13;;;23.58;;
80297;SDS011;69599;52.622;9.230;2023-10-09T09:08:30;47.20;;;20.52;;
80297;SDS011;69599;52.622;9.230;2023-10-09T09:11:01;52.00;;;22.00;;
80297;SDS011;69599;52.622;9.230;2023-10-09T09:13:38;43.35;;;19.95;;
80297;SDS011;69599;52.622;9.230;2023-10-09T09:16:12;44.35;;;20.38;;
80297;SDS011;69599;52.622;9.230;2023-10-09T09:19:00;46.17;;;20.08;;
80297;SDS011;69599;52.622;9.230;2023-10-09T09:21:30;44.10;;;19.00;;
80297;SDS011;69599;52.622;9.230;2023-10-09T09:24:03;45.17;;;20.17;;
80297;SDS011;69599;52.622;9.230;2023-10-09T09:26:40;43.97;;;19.08;;
80297;SDS011;69599;52.622;9.230;2023-10-09T09:29:13;43.50;;;19.65;;
80297;SDS011;69599;52.622;9.230;2023-10-09T09:37:27;48.85;;;20.65;;
80297;SDS011;69599;52.622;9.230;2023-10-09T09:40:00;44.20;;;20.63;;
80297;SDS011;69599;52.622;9.230;2023-10-09T09:42:29;46.47;;;21.13;;
80297;SDS011;69599;52.622;9.230;2023-10-09T09:44:58;56.20;;;22.67;;
80297;SDS011;69599;52.622;9.230;2023-10-09T09:47:25;44.55;;;21.42;;
80297;SDS011;69599;52.622;9.230;2023-10-09T09:49:52;57.85;;;24.83;;
80297;SDS011;69599;52.622;9.230;2023-10-09T09:52:36;53.00;;;24.13;;
80297;SDS011;69599;52.622;9.230;2023-10-09T09:55:06;46.80;;;21.75;;
80297;SDS011;69599;52.622;9.230;2023-10-09T09:57:39;49.40;;;22.95;;
80297;SDS011;69599;52.622;9.230;2023-10-09T10:00:06;52.65;;;23.55;;
80297;SDS011;69599;52.622;9.230;2023-10-09T10:02:53;51.55;;;22.83;;
80297;SDS011;69599;52.622;9.230;2023-10-09T10:05:22;49.47;;;23.67;;
80297;SDS011;69599;52.622;9.230;2023-10-09T10:07:54;49.58;;;23.08;;
80297;SDS011;69599;52.622;9.230;2023-10-09T10:10:40;47.63;;;22.38;;
80297;SDS011;69599;52.622;9.230;2023-10-09T10:21:32;45.80;;;22.77;;
80297;SDS011;69599;52.622;9.230;2023-10-09T10:24:03;46.53;;;21.10;;
80297;SDS011;69599;52.622;9.230;2023-10-09T10:26:34;44.65;;;20.95;;
80297;SDS011;69599;52.622;9.230;2023-10-09T10:31:51;48.53;;;21.98;;
80297;SDS011;69599;52.622;9.230;2023-10-09T10:34:19;41.67;;;21.10;;
80297;SDS011;69599;52.622;9.230;2023-10-09T10:36:48;40.60;;;20.08;;
80297;SDS011;69599;52.622;9.230;2023-10-09T10:39:25;48.17;;;22.63;;
80297;SDS011;69599;52.622;9.230;2023-10-09T10:42:09;53.40;;;22.00;;
80297;SDS011;69599;52.622;9.230;2023-10-09T10:44:41;42.17;;;19.67;;
80297;SDS011;69599;52.622;9.230;2023-10-09T10:49:49;46.35;;;21.05;;
80297;SDS011;69599;52.622;9.230;2023-10-09T10:52:19;43.05;;;21.02;;
80297;SDS011;69599;52.622;9.230;2023-10-09T10:54:46;41.83;;;21.58;;
80297;SDS011;69599;52.622;9.230;2023-10-09T10:57:15;40.05;;;21.52;;
80297;SDS011;69599;52.622;9.230;2023-10-09T11:00:16;45.55;;;20.67;;
80297;SDS011;69599;52.622;9.230;2023-10-09T11:03:00;43.42;;;20.60;;
80297;SDS011;69599;52.622;9.230;2023-10-09T11:05:45;38.78;;;19.58;;
80297;SDS011;69599;52.622;9.230;2023-10-09T11:08:17;42.38;;;19.08;;
80297;SDS011;69599;52.622;9.230;2023-10-09T11:10:48;42.28;;;19.08;;
80297;SDS011;69599;52.622;9.230;2023-10-09T11:13:25;40.80;;;19.50;;
80297;SDS011;69599;52.622;9.230;2023-10-09T11:16:01;44.10;;;21.50;;
80297;SDS011;69599;52.622;9.230;2023-10-09T11:18:53;40.28;;;21.42;;
80297;SDS011;69599;52.622;9.230;2023-10-09T11:21:22;39.65;;;21.15;;
80297;SDS011;69599;52.622;9.230;2023-10-09T11:23:47;41.55;;;21.00;;
80297;SDS011;69599;52.622;9.230;2023-10-09T11:26:15;39.33;;;20.08;;
80297;SDS011;69599;52.622;9.230;2023-10-09T11:29:09;40.83;;;21.27;;
80297;SDS011;69599;52.622;9.230;2023-10-09T11:32:04;43.00;;;20.77;;
80297;SDS011;69599;52.622;9.230;2023-10-09T11:34:31;36.95;;;17.55;;
80297;SDS011;69599;52.622;9.230;2023-10-09T11:36:58;33.38;;;18.30;;
80297;SDS011;69599;52.622;9.230;2023-10-09T11:39:28;32.72;;;18.98;;
80297;SDS011;69599;52.622;9.230;2023-10-09T11:42:05;34.40;;;17.88;;
80297;SDS011;69599;52.622;9.230;2023-10-09T11:44:39;36.90;;;17.85;;
80297;SDS011;69599;52.622;9.230;2023-10-09T11:47:06;34.25;;;17.80;;
80297;SDS011;69599;52.622;9.230;2023-10-09T11:49:50;38.50;;;18.50;;
80297;SDS011;69599;52.622;9.230;2023-10-09T11:52:56;33.15;;;17.55;;
80297;SDS011;69599;52.622;9.230;2023-10-09T11:55:42;30.23;;;16.60;;
80297;SDS011;69599;52.622;9.230;2023-10-09T11:58:13;30.83;;;17.55;;
80297;SDS011;69599;52.622;9.230;2023-10-09T12:00:39;31.80;;;18.75;;
80297;SDS011;69599;52.622;9.230;2023-10-09T12:03:11;28.35;;;16.02;;
80297;SDS011;69599;52.622;9.230;2023-10-09T12:05:38;30.38;;;16.10;;
80297;SDS011;69599;52.622;9.230;2023-10-09T12:08:07;29.35;;;16.25;;
80297;SDS011;69599;52.622;9.230;2023-10-09T12:10:34;31.02;;;16.38;;
80297;SDS011;69599;52.622;9.230;2023-10-09T12:13:03;25.73;;;15.18;;
80297;SDS011;69599;52.622;9.230;2023-10-09T12:15:30;29.15;;;16.40;;
80297;SDS011;69599;52.622;9.230;2023-10-09T12:18:05;28.48;;;16.48;;
80297;SDS011;69599;52.622;9.230;2023-10-09T12:20:39;34.47;;;18.33;;
80297;SDS011;69599;52.622;9.230;2023-10-09T12:23:05;34.67;;;17.20;;
80297;SDS011;69599;52.622;9.230;2023-10-09T12:25:34;32.60;;;17.45;;
80297;SDS011;69599;52.622;9.230;2023-10-09T12:28:05;29.63;;;15.90;;
80297;SDS011;69599;52.622;9.230;2023-10-09T12:30:31;32.80;;;18.17;;
80297;SDS011;69599;52.622;9.230;2023-10-09T12:33:04;31.98;;;19.70;;
80297;SDS011;69599;52.622;9.230;2023-10-09T12:35:30;36.75;;;17.52;;
80297;SDS011;69599;52.622;9.230;2023-10-09T12:37:59;31.65;;;16.90;;
80297;SDS011;69599;52.622;9.230;2023-10-09T12:40:25;31.50;;;17.17;;
80297;SDS011;69599;52.622;9.230;2023-10-09T12:42:54;30.30;;;16.48;;
80297;SDS011;69599;52.622;9.230;2023-10-09T12:45:21;29.55;;;17.27;;
80297;SDS011;69599;52.622;9.230;2023-10-09T12:47:57;29.13;;;17.17;;
80297;SDS011;69599;52.622;9.230;2023-10-09T12:50:33;28.50;;;16.75;;
80297;SDS011;69599;52.622;9.230;2023-10-09T12:52:59;30.02;;;15.70;;
80297;SDS011;69599;52.622;9.230;2023-10-09T12:55:34;27.77;;;16.33;;
80297;SDS011;69599;52.622;9.230;2023-10-09T12:58:00;29.50;;;15.65;;
80297;SDS011;69599;52.622;9.230;2023-10-09T13:00:33;28.60;;;15.60;;
80297;SDS011;69599;52.622;9.230;2023-10-09T13:03:02;24.30;;;14.93;;
80297;SDS011;69599;52.622;9.230;2023-10-09T13:05:38;28.38;;;16.35;;
80297;SDS011;69599;52.622;9.230;2023-10-09T13:08:16;28.90;;;17.15;;
80297;SDS011;69599;52.622;9.230;2023-10-09T13:10:45;26.15;;;15.95;;
80297;SDS011;69599;52.622;9.230;2023-10-09T13:13:10;24.25;;;15.52;;
80297;SDS011;69599;52.622;9.230;2023-10-09T13:15:36;25.45;;;15.00;;
80297;SDS011;69599;52.622;9.230;2023-10-09T13:18:07;25.40;;;15.18;;
80297;SDS011;69599;52.622;9.230;2023-10-09T13:20:33;25.77;;;15.82;;
80297;SDS011;69599;52.622;9.230;2023-10-09T13:23:00;29.05;;;17.08;;
80297;SDS011;69599;52.622;9.230;2023-10-09T13:25:26;24.05;;;16.95;;
80297;SDS011;69599;52.622;9.230;2023-10-09T13:27:57;23.15;;;15.07;;
80297;SDS011;69599;52.622;9.230;2023-10-09T13:30:23;27.75;;;16.00;;
80297;SDS011;69599;52.622;9.230;2023-10-09T13:32:51;24.27;;;14.68;;
80297;SDS011;69599;52.622;9.230;2023-10-09T13:35:19;22.75;;;15.50;;
80297;SDS011;69599;52.622;9.230;2023-10-09T13:37:52;23.38;;;17.13;;
80297;SDS011;69599;52.622;9.230;2023-10-09T13:40:21;22.20;;;14.57;;
80297;SDS011;69599;52.622;9.230;2023-10-09T13:42:56;31.13;;;16.73;;
80297;SDS011;69599;52.622;9.230;2023-10-09T13:45:25;21.80;;;13.95;;
80297;SDS011;69599;52.622;9.230;2023-10-09T13:47:53;19.40;;;14.48;;
80297;SDS011;69599;52.622;9.230;2023-10-09T13:50:24;20.50;;;12.65;;
80297;SDS011;69599;52.622;9.230;2023-10-09T13:52:54;18.67;;;13.00;;
80297;SDS011;69599;52.622;9.230;2023-10-09T13:55:19;16.52;;;11.48;;
80297;SDS011;69599;52.622;9.230;2023-10-09T13:57:45;16.30;;;11.18;;
80297;SDS011;69599;52.622;9.230;2023-10-09T14:00:14;16.50;;;10.07;;
80297;SDS011;69599;52.622;9.230;2023-10-09T14:02:57;15.07;;;9.85;;
80297;SDS011;69599;52.622;9.230;2023-10-09T14:05:26;14.15;;;9.82;;
80297;SDS011;69599;52.622;9.230;2023-10-09T14:07:54;12.93;;;9.30;;
80297;SDS011;69599;52.622;9.230;2023-10-09T14:10:25;12.38;;;8.77;;
80297;SDS011;69599;52.622;9.230;2023-10-09T14:12:55;13.45;;;8.63;;
80297;SDS011;69599;52.622;9.230;2023-10-09T14:15:21;12.35;;;9.82;;
80297;SDS011;69599;52.622;9.230;2023-10-09T14:17:48;12.68;;;8.90;;
80297;SDS011;69599;52.622;9.230;2023-10-09T14:20:20;10.60;;;8.65;;
80297;SDS011;69599;52.622;9.230;2023-10-09T14:22:56;11.93;;;8.63;;
80297;SDS011;69599;52.622;9.230;2023-10-09T14:25:35;9.23;;;7.43;;
80297;SDS011;69599;52.622;9.230;2023-10-09T14:28:09;12.90;;;7.80;;
80297;SDS011;69599;52.622;9.230;2023-10-09T14:30:37;10.63;;;6.65;;
80297;SDS011;69599;52.622;9.230;2023-10-09T14:33:10;10.25;;;6.63;;
80297;SDS011;69599;52.622;9.230;2023-10-09T14:35:39;10.63;;;6.22;;
80297;SDS011;69599;52.622;9.230;2023-10-09T14:38:05;8.55;;;6.00;;
80297;SDS011;69599;52.622;9.230;2023-10-09T14:40:40;7.85;;;5.10;;
80297;SDS011;69599;52.622;9.230;2023-10-09T14:43:07;8.02;;;5.07;;
80297;SDS011;69599;52.622;9.230;2023-10-09T14:45:36;11.20;;;5.63;;
80297;SDS011;69599;52.622;9.230;2023-10-09T14:48:02;9.82;;;4.75;;
80297;SDS011;69599;52.622;9.230;2023-10-09T14:50:27;8.98;;;5.57;;
80297;SDS011;69599;52.622;9.230;2023-10-09T14:52:53;7.22;;;4.63;;
80297;SDS011;69599;52.622;9.230;2023-10-09T14:55:18;7.75;;;4.15;;
80297;SDS011;69599;52.622;9.230;2023-10-09T14:57:51;4.80;;;3.30;;
80297;SDS011;69599;52.622;9.230;2023-10-09T15:00:17;4.88;;;3.20;;
80297;SDS011;69599;52.622;9.230;2023-10-09T15:02:48;5.50;;;3.10;;
80297;SDS011;69599;52.622;9.230;2023-10-09T15:05:15;5.45;;;3.08;;
80297;SDS011;69599;52.622;9.230;2023-10-09T15:07:41;6.05;;;2.55;;
80297;SDS011;69599;52.622;9.230;2023-10-09T15:10:06;4.57;;;2.60;;
80297;SDS011;69599;52.622;9.230;2023-10-09T15:12:36;5.15;;;2.97;;
80297;SDS011;69599;52.622;9.230;2023-10-09T15:15:07;5.85;;;2.38;;
80297;SDS011;69599;52.622;9.230;2023-10-09T15:17:39;5.50;;;3.33;;
80297;SDS011;69599;52.622;9.230;2023-10-09T15:20:09;6.22;;;2.92;;
80297;SDS011;69599;52.622;9.230;2023-10-09T15:22:39;9.60;;;3.28;;
80297;SDS011;69599;52.622;9.230;2023-10-09T15:25:05;10.15;;;5.85;;
80297;SDS011;69599;52.622;9.230;2023-10-09T15:27:31;16.98;;;6.70;;
80297;SDS011;69599;52.622;9.230;2023-10-09T15:29:57;12.32;;;7.15;;
80297;SDS011;69599;52.622;9.230;2023-10-09T15:32:22;9.35;;;5.72;;
80297;SDS011;69599;52.622;9.230;2023-10-09T15:34:49;9.27;;;5.13;;